Time;durP1;ratioP1;P1;durP2;ratioP2;P2;SDS_P1;SDS_P2;PMS_P1;PMS_P2;Temp;Humidity;BMP_temperature;BMP_pressure;BME280_temperature;BME280_humidity;BME280_pressure;Samples;Min_cycle;Max_cycle;Signal;HPM_P1;HPM_P2
2022/01/28 00:11:15;;;;;;;11.6;3.9;;;;;;;4.5;100.0;102730;;;;
2022/01/28 00:39:15;;;;;;;13.6;4.7;;;;;;;4.3;100.0;102740;;;;
2022/01/28 00:45:15;;;;;;;13.6;4.7;;;;;;;4.2;100.0;102740;;;;
2022/01/28 00:55:15;;;;;;;13.6;4.7;;;;;;;4.1;100.0;102750;;;;
2022/01/28 00:57:15;;;;;;;10.3;4.0;;;;;;;4.2;100.0;102750;;;;
2022/01/28 00:59:15;;;;;;;10.3;4.0;;;;;;;4.1;100.0;102750;;;;
2022/01/28 01:15:20;;;;;;;10.3;4.0;;;;;;;4.0;100.0;102750;;;;
2022/01/28 01:17:28;;;;;;;15.7;5.0;;;;;;;4.1;100.0;102750;;;;
2022/01/28 01:21:22;;;;;;;15.7;5.0;;;;;;;4.2;100.0;102760;;;;
2022/01/28 01:23:24;;;;;;;15.7;5.0;;;;;;;4.1;100.0;102760;;;;
2022/01/28 01:25:23;;;;;;;15.7;5.0;;;;;;;4.2;100.0;102760;;;;
2022/01/28 01:27:17;;;;;;;15.7;5.0;;;;;;;4.3;100.0;102770;;;;
2022/01/28 01:29:18;;;;;;;15.7;5.0;;;;;;;4.2;100.0;102780;;;;
2022/01/28 01:31:19;;;;;;;15.7;5.0;;;;;;;4.3;100.0;102780;;;;
2022/01/28 01:33:18;;;;;;;15.7;5.0;;;;;;;4.2;100.0;102790;;;;
2022/01/28 01:35:15;;;;;;;15.7;5.0;;;;;;;4.3;100.0;102790;;;;
2022/01/28 01:53:15;;;;;;;16.1;4.3;;;;;;;4.3;100.0;102800;;;;
2022/01/28 01:55:15;;;;;;;16.1;4.3;;;;;;;4.2;100.0;102810;;;;
2022/01/28 02:07:15;;;;;;;11.5;4.1;;;;;;;4.3;100.0;102840;;;;
2022/01/28 02:13:15;;;;;;;11.5;4.1;;;;;;;4.4;100.0;102840;;;;
2022/01/28 02:15:15;;;;;;;11.5;4.1;;;;;;;4.3;100.0;102840;;;;
2022/01/28 02:17:15;;;;;;;10.1;4.3;;;;;;;4.2;100.0;102830;;;;
2022/01/28 02:19:15;;;;;;;10.1;4.3;;;;;;;4.3;100.0;102840;;;;
2022/01/28 02:21:17;;;;;;;10.1;4.3;;;;;;;4.2;100.0;102840;;;;
2022/01/28 02:37:16;;;;;;;12.4;4.3;;;;;;;4.1;100.0;102850;;;;
2022/01/28 02:39:16;;;;;;;12.4;4.3;;;;;;;4.3;100.0;102850;;;;
2022/01/28 02:41:15;;;;;;;12.4;4.3;;;;;;;4.1;100.0;102860;;;;
2022/01/28 02:47:27;;;;;;;12.4;4.3;;;;;;;4.1;100.0;102870;;;;
2022/01/28 03:01:16;;;;;;;13.1;4.2;;;;;;;4.2;100.0;102880;;;;
2022/01/28 03:13:29;;;;;;;13.1;4.2;;;;;;;4.2;100.0;102900;;;;
2022/01/28 03:15:20;;;;;;;13.1;4.2;;;;;;;4.1;100.0;102900;;;;
2022/01/28 03:35:17;;;;;;;10.6;4.5;;;;;;;4.0;100.0;102910;;;;
2022/01/28 03:47:16;;;;;;;13.8;4.7;;;;;;;3.9;100.0;102890;;;;
2022/01/28 03:49:15;;;;;;;13.8;4.7;;;;;;;4.0;100.0;102890;;;;
2022/01/28 03:51:15;;;;;;;13.8;4.7;;;;;;;3.9;100.0;102890;;;;
2022/01/28 04:13:21;;;;;;;11.2;4.2;;;;;;;3.9;100.0;102910;;;;
2022/01/28 04:21:15;;;;;;;11.8;4.3;;;;;;;3.9;100.0;102920;;;;
2022/01/28 04:25:16;;;;;;;11.8;4.3;;;;;;;3.8;100.0;102920;;;;
2022/01/28 04:59:31;;;;;;;10.3;4.2;;;;;;;3.7;100.0;102950;;;;
2022/01/28 05:15:40;;;;;;;10.3;4.2;;;;;;;3.7;100.0;102970;;;;
2022/01/28 05:27:17;;;;;;;14.8;4.4;;;;;;;3.5;100.0;102990;;;;
2022/01/28 05:33:15;;;;;;;14.8;4.4;;;;;;;3.6;100.0;102990;;;;
2022/01/28 05:37:16;;;;;;;15.2;4.9;;;;;;;3.5;100.0;103000;;;;
2022/01/28 05:41:16;;;;;;;15.2;4.9;;;;;;;3.4;100.0;103010;;;;
2022/01/28 05:43:15;;;;;;;15.2;4.9;;;;;;;3.5;100.0;103010;;;;
2022/01/28 05:45:16;;;;;;;15.2;4.9;;;;;;;3.4;100.0;103010;;;;
2022/01/28 05:57:15;;;;;;;12.5;4.2;;;;;;;3.3;100.0;103030;;;;
2022/01/28 05:59:16;;;;;;;12.5;4.2;;;;;;;3.4;100.0;103040;;;;
2022/01/28 06:01:16;;;;;;;12.5;4.2;;;;;;;3.3;100.0;103040;;;;
2022/01/28 06:03:16;;;;;;;12.5;4.2;;;;;;;3.4;100.0;103040;;;;
2022/01/28 06:05:17;;;;;;;12.5;4.2;;;;;;;3.2;100.0;103050;;;;
2022/01/28 06:15:15;;;;;;;11.5;4.1;;;;;;;3.3;100.0;103060;;;;
2022/01/28 06:21:16;;;;;;;11.5;4.1;;;;;;;3.2;100.0;103070;;;;
2022/01/28 06:27:16;;;;;;;11.5;4.1;;;;;;;3.1;100.0;103080;;;;
2022/01/28 06:29:16;;;;;;;11.5;4.1;;;;;;;3.2;100.0;103080;;;;
2022/01/28 06:33:16;;;;;;;11.5;4.1;;;;;;;3.1;100.0;103090;;;;
2022/01/28 06:35:15;;;;;;;12.2;4.4;;;;;;;3.0;100.0;103090;;;;
2022/01/28 06:41:15;;;;;;;12.2;4.4;;;;;;;3.1;100.0;103100;;;;
2022/01/28 06:43:16;;;;;;;12.2;4.4;;;;;;;3.0;100.0;103110;;;;
2022/01/28 06:51:15;;;;;;;12.2;4.4;;;;;;;2.9;100.0;103110;;;;
2022/01/28 06:53:16;;;;;;;12.2;4.4;;;;;;;2.8;100.0;103120;;;;
2022/01/28 06:57:15;;;;;;;13.1;5.8;;;;;;;2.9;100.0;103120;;;;
2022/01/28 07:03:16;;;;;;;13.1;5.8;;;;;;;3.0;100.0;103120;;;;
2022/01/28 07:05:19;;;;;;;13.1;5.8;;;;;;;2.8;100.0;103130;;;;
2022/01/28 07:11:17;;;;;;;13.1;5.8;;;;;;;2.7;100.0;103150;;;;
2022/01/28 07:15:15;;;;;;;14.8;6.6;;;;;;;2.8;100.0;103150;;;;
2022/01/28 07:19:15;;;;;;;14.8;6.6;;;;;;;2.7;100.0;103150;;;;
2022/01/28 07:25:16;;;;;;;14.8;6.6;;;;;;;2.6;100.0;103160;;;;
2022/01/28 07:33:16;;;;;;;14.8;6.6;;;;;;;2.5;100.0;103160;;;;
2022/01/28 07:41:16;;;;;;;13.4;5.3;;;;;;;2.4;100.0;103180;;;;
2022/01/28 07:49:15;;;;;;;13.4;5.3;;;;;;;2.3;100.0;103190;;;;
2022/01/28 08:01:16;;;;;;;15.7;7.7;;;;;;;2.2;100.0;103200;;;;
2022/01/28 08:21:16;;;;;;;13.9;5.6;;;;;;;2.1;100.0;103240;;;;
2022/01/28 08:23:16;;;;;;;13.9;5.6;;;;;;;2.2;100.0;103240;;;;
2022/01/28 08:27:20;;;;;;;13.9;5.6;;;;;;;2.3;100.0;103230;;;;
2022/01/28 08:29:16;;;;;;;13.9;5.6;;;;;;;2.5;100.0;103230;;;;
2022/01/28 08:31:16;;;;;;;13.9;5.6;;;;;;;2.6;100.0;103240;;;;
2022/01/28 08:35:16;;;;;;;12.2;5.6;;;;;;;2.7;100.0;103240;;;;
2022/01/28 08:41:15;;;;;;;12.2;5.6;;;;;;;2.8;100.0;103240;;;;
2022/01/28 08:43:15;;;;;;;12.2;5.6;;;;;;;2.9;100.0;103240;;;;
2022/01/28 08:45:16;;;;;;;12.2;5.6;;;;;;;2.8;100.0;103240;;;;
2022/01/28 08:47:16;;;;;;;12.2;5.6;;;;;;;2.9;100.0;103250;;;;
2022/01/28 08:49:16;;;;;;;12.2;5.6;;;;;;;3.0;100.0;103250;;;;
2022/01/28 08:57:16;;;;;;;17.9;6.2;;;;;;;3.2;100.0;103250;;;;
2022/01/28 09:03:16;;;;;;;17.9;6.2;;;;;;;3.3;100.0;103240;;;;
2022/01/28 09:11:32;;;;;;;17.9;6.2;;;;;;;3.4;100.0;103250;;;;
2022/01/28 09:15:25;;;;;;;15.4;5.8;;;;;;;3.5;100.0;103240;;;;
2022/01/28 09:17:16;;;;;;;15.4;5.8;;;;;;;3.6;100.0;103240;;;;
2022/01/28 09:23:16;;;;;;;15.4;5.8;;;;;;;3.7;100.0;103260;;;;
2022/01/28 09:25:15;;;;;;;15.4;5.8;;;;;;;3.8;100.0;103260;;;;
2022/01/28 09:27:17;;;;;;;15.4;5.8;;;;;;;3.9;100.0;103260;;;;
2022/01/28 09:31:16;;;;;;;15.4;5.8;;;;;;;4.1;100.0;103250;;;;
2022/01/28 09:35:16;;;;;;;12.5;5.3;;;;;;;4.3;100.0;103260;;;;
2022/01/28 09:37:16;;;;;;;12.5;5.3;;;;;;;4.4;100.0;103260;;;;
2022/01/28 09:45:16;;;;;;;12.5;5.3;;;;;;;4.5;100.0;103270;;;;
2022/01/28 09:49:15;;;;;;;12.5;5.3;;;;;;;4.7;100.0;103270;;;;
2022/01/28 09:55:16;;;;;;;12.6;4.8;;;;;;;4.8;100.0;103290;;;;
2022/01/28 10:03:16;;;;;;;12.6;4.8;;;;;;;4.9;100.0;103290;;;;
2022/01/28 10:05:16;;;;;;;12.6;4.8;;;;;;;5.1;100.0;103290;;;;
2022/01/28 10:07:16;;;;;;;12.6;4.8;;;;;;;5.2;100.0;103300;;;;
2022/01/28 10:09:17;;;;;;;12.6;4.8;;;;;;;5.3;100.0;103300;;;;
2022/01/28 10:11:17;;;;;;;12.6;4.8;;;;;;;5.4;100.0;103300;;;;
2022/01/28 10:17:16;;;;;;;16.8;6.2;;;;;;;5.6;100.0;103290;;;;
2022/01/28 10:19:15;;;;;;;16.8;6.2;;;;;;;5.7;100.0;103300;;;;
2022/01/28 10:21:16;;;;;;;16.8;6.2;;;;;;;5.8;100.0;103300;;;;
2022/01/28 10:25:16;;;;;;;16.8;6.2;;;;;;;5.9;100.0;103300;;;;
2022/01/28 10:29:16;;;;;;;16.8;6.2;;;;;;;6.0;100.0;103300;;;;
2022/01/28 10:35:15;;;;;;;15.2;5.7;;;;;;;5.9;100.0;103290;;;;
2022/01/28 10:39:16;;;;;;;15.2;5.7;;;;;;;6.1;100.0;103290;;;;
2022/01/28 10:45:17;;;;;;;15.2;5.7;;;;;;;6.2;100.0;103300;;;;
2022/01/28 10:47:16;;;;;;;15.2;5.7;;;;;;;6.3;100.0;103290;;;;
2022/01/28 10:49:16;;;;;;;15.2;5.7;;;;;;;6.4;100.0;103300;;;;
2022/01/28 10:53:16;;;;;;;15.2;5.7;;;;;;;6.3;100.0;103300;;;;
2022/01/28 10:55:16;;;;;;;13.5;5.2;;;;;;;6.4;100.0;103290;;;;
2022/01/28 10:57:16;;;;;;;13.5;5.2;;;;;;;6.5;100.0;103290;;;;
2022/01/28 10:59:16;;;;;;;13.5;5.2;;;;;;;6.6;100.0;103280;;;;
2022/01/28 11:01:16;;;;;;;13.5;5.2;;;;;;;6.7;100.0;103280;;;;
2022/01/28 11:03:17;;;;;;;13.5;5.2;;;;;;;6.6;100.0;103290;;;;
2022/01/28 11:05:15;;;;;;;13.5;5.2;;;;;;;6.5;100.0;103280;;;;
2022/01/28 11:07:16;;;;;;;13.5;5.2;;;;;;;6.7;100.0;103280;;;;
2022/01/28 11:11:16;;;;;;;13.5;5.2;;;;;;;6.8;100.0;103270;;;;
2022/01/28 11:13:16;;;;;;;13.5;5.2;;;;;;;6.9;100.0;103280;;;;
2022/01/28 11:15:16;;;;;;;13.3;5.6;;;;;;;6.8;100.0;103270;;;;
2022/01/28 11:23:16;;;;;;;13.3;5.6;;;;;;;7.0;100.0;103250;;;;
2022/01/28 11:25:16;;;;;;;13.3;5.6;;;;;;;7.1;100.0;103240;;;;
2022/01/28 11:29:16;;;;;;;13.3;5.6;;;;;;;7.2;100.0;103240;;;;
2022/01/28 11:31:16;;;;;;;13.3;5.6;;;;;;;7.3;100.0;103240;;;;
2022/01/28 11:35:16;;;;;;;10.3;3.5;;;;;;;7.0;100.0;103230;;;;
2022/01/28 11:37:16;;;;;;;10.3;3.5;;;;;;;7.1;100.0;103230;;;;
2022/01/28 11:41:17;;;;;;;10.3;3.5;;;;;;;7.3;100.0;103230;;;;
2022/01/28 11:43:16;;;;;;;10.3;3.5;;;;;;;7.4;100.0;103220;;;;
2022/01/28 11:47:16;;;;;;;10.3;3.5;;;;;;;7.5;100.0;103220;;;;
2022/01/28 11:49:16;;;;;;;10.3;3.5;;;;;;;7.6;100.0;103220;;;;
2022/01/28 11:55:17;;;;;;;9.3;3.6;;;;;;;7.5;100.0;103220;;;;
2022/01/28 11:59:16;;;;;;;9.3;3.6;;;;;;;7.4;100.0;103220;;;;
2022/01/28 12:01:16;;;;;;;9.3;3.6;;;;;;;7.5;100.0;103220;;;;
2022/01/28 12:07:17;;;;;;;9.3;3.6;;;;;;;7.4;100.0;103220;;;;
2022/01/28 12:11:25;;;;;;;9.3;3.6;;;;;;;7.3;100.0;103230;;;;
2022/01/28 12:15:18;;;;;;;10.1;3.3;;;;;;;7.4;100.0;103230;;;;
2022/01/28 12:19:16;;;;;;;10.1;3.3;;;;;;;7.5;100.0;103200;;;;
2022/01/28 12:21:16;;;;;;;10.1;3.3;;;;;;;7.3;100.0;103200;;;;
2022/01/28 12:25:16;;;;;;;10.1;3.3;;;;;;;7.2;100.0;103200;;;;
2022/01/28 12:27:16;;;;;;;10.1;3.3;;;;;;;7.4;100.0;103190;;;;
2022/01/28 12:31:16;;;;;;;10.1;3.3;;;;;;;7.3;100.0;103190;;;;
2022/01/28 12:33:16;;;;;;;10.1;3.3;;;;;;;7.4;100.0;103170;;;;
2022/01/28 12:35:16;;;;;;;10.4;3.1;;;;;;;7.5;100.0;103170;;;;
2022/01/28 12:39:21;;;;;;;10.4;3.1;;;;;;;7.6;100.0;103170;;;;
2022/01/28 12:45:16;;;;;;;10.4;3.1;;;;;;;7.5;100.0;103160;;;;
2022/01/28 12:47:16;;;;;;;10.4;3.1;;;;;;;7.6;100.0;103160;;;;
2022/01/28 12:51:16;;;;;;;10.4;3.1;;;;;;;7.5;100.0;103160;;;;
2022/01/28 12:53:18;;;;;;;8.7;2.9;;;;;;;7.6;100.0;103160;;;;
2022/01/28 12:55:16;;;;;;;8.7;2.9;;;;;;;7.7;100.0;103160;;;;
2022/01/28 12:59:16;;;;;;;8.7;2.9;;;;;;;7.8;100.0;103150;;;;
2022/01/28 13:03:19;;;;;;;8.7;2.9;;;;;;;8.0;100.0;103160;;;;
2022/01/28 13:19:16;;;;;;;7.1;3.1;;;;;;;8.0;100.0;103120;;;;
2022/01/28 13:21:16;;;;;;;7.1;3.1;;;;;;;8.1;100.0;103120;;;;
2022/01/28 13:25:16;;;;;;;7.1;3.1;;;;;;;8.2;100.0;103110;;;;
2022/01/28 13:27:17;;;;;;;7.1;3.1;;;;;;;8.4;100.0;103110;;;;
2022/01/28 13:29:16;;;;;;;7.1;3.1;;;;;;;8.5;100.0;103110;;;;
2022/01/28 13:33:16;;;;;;;9.1;4.0;;;;;;;8.4;100.0;103110;;;;
2022/01/28 13:41:16;;;;;;;9.1;4.0;;;;;;;8.6;100.0;103110;;;;
2022/01/28 13:45:17;;;;;;;9.1;4.0;;;;;;;8.5;100.0;103100;;;;
2022/01/28 13:49:16;;;;;;;9.1;4.0;;;;;;;8.7;100.0;103100;;;;
2022/01/28 13:51:17;;;;;;;9.1;4.0;;;;;;;8.8;100.0;103100;;;;
2022/01/28 13:55:16;;;;;;;10.7;4.6;;;;;;;8.7;100.0;103110;;;;
2022/01/28 14:01:16;;;;;;;10.7;4.6;;;;;;;8.8;100.0;103110;;;;
2022/01/28 14:03:16;;;;;;;10.7;4.6;;;;;;;8.6;100.0;103120;;;;
2022/01/28 14:05:18;;;;;;;10.7;4.6;;;;;;;8.5;100.0;103120;;;;
2022/01/28 14:11:16;;;;;;;10.7;4.6;;;;;;;8.6;100.0;103110;;;;
2022/01/28 14:15:27;;;;;;;14.7;7.4;;;;;;;8.5;100.0;103110;;;;
2022/01/28 14:17:16;;;;;;;14.7;7.4;;;;;;;8.6;100.0;103100;;;;
2022/01/28 14:21:16;;;;;;;14.7;7.4;;;;;;;8.5;100.0;103110;;;;
2022/01/28 14:23:16;;;;;;;14.7;7.4;;;;;;;8.6;100.0;103110;;;;
2022/01/28 14:35:17;;;;;;;9.7;6.0;;;;;;;8.5;100.0;103110;;;;
2022/01/28 14:37:16;;;;;;;9.7;6.0;;;;;;;8.4;100.0;103110;;;;
2022/01/28 14:43:16;;;;;;;9.7;6.0;;;;;;;8.5;100.0;103120;;;;
2022/01/28 14:45:21;;;;;;;9.7;6.0;;;;;;;8.4;100.0;103120;;;;
2022/01/28 14:47:16;;;;;;;9.7;6.0;;;;;;;8.3;100.0;103120;;;;
2022/01/28 14:49:16;;;;;;;9.7;6.0;;;;;;;8.4;100.0;103130;;;;
2022/01/28 14:51:20;;;;;;;9.7;6.0;;;;;;;8.3;100.0;103120;;;;
2022/01/28 14:59:16;;;;;;;11.0;5.2;;;;;;;8.4;100.0;103130;;;;
2022/01/28 15:01:16;;;;;;;11.0;5.2;;;;;;;8.3;100.0;103130;;;;
2022/01/28 15:11:24;;;;;;;11.0;5.2;;;;;;;8.2;100.0;103110;;;;
2022/01/28 15:13:17;;;;;;;11.8;5.8;;;;;;;8.3;100.0;103100;;;;
2022/01/28 15:17:19;;;;;;;11.8;5.8;;;;;;;8.2;100.0;103100;;;;
2022/01/28 15:19:16;;;;;;;11.8;5.8;;;;;;;8.1;100.0;103100;;;;
2022/01/28 15:27:28;;;;;;;11.8;5.8;;;;;;;8.2;100.0;103100;;;;
2022/01/28 15:43:16;;;;;;;13.0;6.8;;;;;;;8.2;100.0;103090;;;;
2022/01/28 15:47:16;;;;;;;13.0;6.8;;;;;;;8.1;100.0;103080;;;;
2022/01/28 15:55:16;;;;;;;12.9;6.7;;;;;;;8.2;100.0;103090;;;;
2022/01/28 15:57:19;;;;;;;12.9;6.7;;;;;;;8.1;100.0;103090;;;;
2022/01/28 16:01:16;;;;;;;12.9;6.7;;;;;;;8.0;100.0;103090;;;;
2022/01/28 16:25:16;;;;;;;14.0;8.9;;;;;;;7.8;100.0;103050;;;;
2022/01/28 16:27:16;;;;;;;14.0;8.9;;;;;;;7.9;100.0;103050;;;;
2022/01/28 16:31:16;;;;;;;14.0;8.9;;;;;;;7.8;100.0;103040;;;;
2022/01/28 16:37:16;;;;;;;13.0;9.5;;;;;;;7.7;100.0;103060;;;;
2022/01/28 16:39:16;;;;;;;13.0;9.5;;;;;;;7.6;100.0;103050;;;;
2022/01/28 16:41:16;;;;;;;13.0;9.5;;;;;;;7.4;100.0;103060;;;;
2022/01/28 16:43:17;;;;;;;13.0;9.5;;;;;;;7.3;100.0;103070;;;;
2022/01/28 16:45:20;;;;;;;13.0;9.5;;;;;;;7.2;100.0;103070;;;;
2022/01/28 16:47:16;;;;;;;13.0;9.5;;;;;;;7.0;100.0;103070;;;;
2022/01/28 16:49:16;;;;;;;13.0;9.5;;;;;;;7.1;100.0;103060;;;;
2022/01/28 16:53:16;;;;;;;29.4;26.3;;;;;;;7.0;100.0;103060;;;;
2022/01/28 16:55:18;;;;;;;29.4;26.3;;;;;;;6.9;100.0;103060;;;;
2022/01/28 16:57:16;;;;;;;29.4;26.3;;;;;;;7.0;100.0;103060;;;;
2022/01/28 16:59:16;;;;;;;29.4;26.3;;;;;;;6.9;100.0;103070;;;;
2022/01/28 17:01:16;;;;;;;29.4;26.3;;;;;;;6.8;100.0;103070;;;;
2022/01/28 17:03:16;;;;;;;29.4;26.3;;;;;;;6.9;100.0;103070;;;;
2022/01/28 17:05:16;;;;;;;29.4;26.3;;;;;;;6.8;100.0;103070;;;;
2022/01/28 17:07:16;;;;;;;29.4;26.3;;;;;;;6.9;100.0;103060;;;;
2022/01/28 17:13:16;;;;;;;33.0;29.2;;;;;;;6.7;100.0;103050;;;;
2022/01/28 17:25:16;;;;;;;33.0;29.2;;;;;;;6.8;100.0;103060;;;;
2022/01/28 17:29:16;;;;;;;33.0;29.2;;;;;;;6.7;100.0;103060;;;;
2022/01/28 17:33:16;;;;;;;45.7;39.2;;;;;;;6.8;100.0;103070;;;;
2022/01/28 17:35:17;;;;;;;45.7;39.2;;;;;;;6.7;100.0;103070;;;;
2022/01/28 17:37:17;;;;;;;45.7;39.2;;;;;;;6.6;100.0;103070;;;;
2022/01/28 17:41:16;;;;;;;45.7;39.2;;;;;;;6.7;100.0;103070;;;;
2022/01/28 17:47:16;;;;;;;45.7;39.2;;;;;;;6.6;100.0;103060;;;;
2022/01/28 17:49:16;;;;;;;45.7;39.2;;;;;;;6.5;100.0;103060;;;;
2022/01/28 17:53:16;;;;;;;46.1;35.9;;;;;;;6.4;100.0;103060;;;;
2022/01/28 17:59:16;;;;;;;46.1;35.9;;;;;;;6.5;100.0;103060;;;;
2022/01/28 18:01:17;;;;;;;46.1;35.9;;;;;;;6.4;100.0;103050;;;;
2022/01/28 18:05:16;;;;;;;46.1;35.9;;;;;;;6.5;100.0;103050;;;;
2022/01/28 18:07:16;;;;;;;46.1;35.9;;;;;;;6.4;100.0;103040;;;;
2022/01/28 18:11:16;;;;;;;46.1;35.9;;;;;;;6.5;100.0;103020;;;;
2022/01/28 18:13:16;;;;;;;49.9;39.1;;;;;;;6.4;100.0;103020;;;;
2022/01/28 18:15:16;;;;;;;49.9;39.1;;;;;;;6.5;100.0;103010;;;;
2022/01/28 18:19:16;;;;;;;49.9;39.1;;;;;;;6.4;100.0;103010;;;;
2022/01/28 18:27:17;;;;;;;49.9;39.1;;;;;;;6.3;100.0;103000;;;;
2022/01/28 18:29:16;;;;;;;49.9;39.1;;;;;;;6.2;100.0;103000;;;;
2022/01/28 18:35:16;;;;;;;51.4;37.6;;;;;;;6.1;100.0;102990;;;;
2022/01/28 18:51:16;;;;;;;51.4;37.6;;;;;;;6.0;100.0;102960;;;;
2022/01/28 18:53:19;;;;;;;56.6;38.7;;;;;;;6.1;100.0;102950;;;;
2022/01/28 18:55:16;;;;;;;56.6;38.7;;;;;;;6.0;100.0;102950;;;;
2022/01/28 18:57:16;;;;;;;56.6;38.7;;;;;;;5.9;100.0;102940;;;;
2022/01/28 18:59:16;;;;;;;56.6;38.7;;;;;;;6.0;100.0;102940;;;;
2022/01/28 19:01:16;;;;;;;56.6;38.7;;;;;;;5.9;100.0;102940;;;;
2022/01/28 19:03:16;;;;;;;56.6;38.7;;;;;;;6.0;100.0;102940;;;;
2022/01/28 19:05:16;;;;;;;56.6;38.7;;;;;;;5.9;100.0;102940;;;;
2022/01/28 19:09:17;;;;;;;56.6;38.7;;;;;;;6.0;100.0;102940;;;;
2022/01/28 19:11:16;;;;;;;56.6;38.7;;;;;;;5.9;100.0;102940;;;;
2022/01/28 19:15:16;;;;;;;54.1;37.1;;;;;;;6.0;100.0;102940;;;;
2022/01/28 19:17:16;;;;;;;54.1;37.1;;;;;;;5.9;100.0;102930;;;;
2022/01/28 19:19:16;;;;;;;54.1;37.1;;;;;;;6.0;100.0;102930;;;;
2022/01/28 19:21:16;;;;;;;54.1;37.1;;;;;;;5.9;100.0;102920;;;;
2022/01/28 19:23:16;;;;;;;54.1;37.1;;;;;;;6.0;100.0;102920;;;;
2022/01/28 19:27:17;;;;;;;54.1;37.1;;;;;;;5.9;100.0;102920;;;;
2022/01/28 19:29:16;;;;;;;54.1;37.1;;;;;;;6.0;100.0;102930;;;;
2022/01/28 19:33:16;;;;;;;64.8;42.5;;;;;;;5.9;100.0;102940;;;;
2022/01/28 19:35:16;;;;;;;64.8;42.5;;;;;;;6.0;100.0;102940;;;;
2022/01/28 19:37:16;;;;;;;64.8;42.5;;;;;;;6.1;100.0;102940;;;;
2022/01/28 19:41:16;;;;;;;64.8;42.5;;;;;;;6.0;100.0;102950;;;;
2022/01/28 19:47:16;;;;;;;64.8;42.5;;;;;;;6.1;100.0;102960;;;;
2022/01/28 19:51:17;;;;;;;64.8;42.5;;;;;;;6.2;100.0;102970;;;;
2022/01/28 19:53:16;;;;;;;66.0;44.3;;;;;;;6.1;100.0;102980;;;;
2022/01/28 20:09:20;;;;;;;66.0;44.3;;;;;;;6.2;100.0;102940;;;;
2022/01/28 20:19:16;;;;;;;62.1;41.7;;;;;;;6.3;100.0;102920;;;;
2022/01/28 20:21:16;;;;;;;62.1;41.7;;;;;;;6.2;100.0;102920;;;;
2022/01/28 20:27:16;;;;;;;62.1;41.7;;;;;;;6.1;100.0;102930;;;;
2022/01/28 20:29:16;;;;;;;62.1;41.7;;;;;;;6.2;100.0;102920;;;;
2022/01/28 20:35:21;;;;;;;55.4;40.7;;;;;;;6.3;100.0;102900;;;;
2022/01/28 20:37:16;;;;;;;55.4;40.7;;;;;;;6.2;100.0;102900;;;;
2022/01/28 20:53:18;;;;;;;59.7;42.4;;;;;;;6.3;100.0;102880;;;;
2022/01/28 20:55:16;;;;;;;59.7;42.4;;;;;;;6.2;100.0;102870;;;;
2022/01/28 20:57:16;;;;;;;59.7;42.4;;;;;;;6.3;100.0;102880;;;;
2022/01/28 20:59:16;;;;;;;59.7;42.4;;;;;;;6.2;100.0;102880;;;;
2022/01/28 21:01:16;;;;;;;59.7;42.4;;;;;;;6.1;100.0;102890;;;;
2022/01/28 21:05:16;;;;;;;59.7;42.4;;;;;;;6.2;100.0;102880;;;;
2022/01/28 21:13:16;;;;;;;60.9;42.0;;;;;;;6.1;100.0;102890;;;;
2022/01/28 21:17:16;;;;;;;60.9;42.0;;;;;;;6.2;100.0;102870;;;;
2022/01/28 21:19:16;;;;;;;60.9;42.0;;;;;;;6.1;100.0;102870;;;;
2022/01/28 21:21:16;;;;;;;60.9;42.0;;;;;;;6.2;100.0;102860;;;;
2022/01/28 21:25:26;;;;;;;60.9;42.0;;;;;;;6.1;100.0;102870;;;;
2022/01/28 21:29:23;;;;;;;60.9;42.0;;;;;;;6.0;100.0;102860;;;;
2022/01/28 21:33:16;;;;;;;57.1;40.7;;;;;;;6.1;100.0;102880;;;;
2022/01/28 21:39:16;;;;;;;57.1;40.7;;;;;;;6.0;100.0;102860;;;;
2022/01/28 21:41:16;;;;;;;57.1;40.7;;;;;;;6.1;100.0;102860;;;;
2022/01/28 21:43:16;;;;;;;57.1;40.7;;;;;;;6.0;100.0;102860;;;;
2022/01/28 21:49:16;;;;;;;57.1;40.7;;;;;;;6.1;100.0;102840;;;;
2022/01/28 21:51:16;;;;;;;52.8;38.2;;;;;;;6.0;100.0;102830;;;;
2022/01/28 21:57:16;;;;;;;52.8;38.2;;;;;;;5.9;100.0;102830;;;;
2022/01/28 22:01:16;;;;;;;52.8;38.2;;;;;;;6.0;100.0;102830;;;;
2022/01/28 22:05:16;;;;;;;52.8;38.2;;;;;;;5.9;100.0;102830;;;;
2022/01/28 22:11:16;;;;;;;50.5;37.2;;;;;;;5.8;100.0;102820;;;;
2022/01/28 22:13:16;;;;;;;50.5;37.2;;;;;;;5.9;100.0;102820;;;;
2022/01/28 22:21:17;;;;;;;50.5;37.2;;;;;;;6.0;100.0;102810;;;;
2022/01/28 22:23:16;;;;;;;50.5;37.2;;;;;;;5.9;100.0;102810;;;;
2022/01/28 22:29:16;;;;;;;50.5;37.2;;;;;;;5.8;100.0;102800;;;;
2022/01/28 22:31:16;;;;;;;48.7;36.5;;;;;;;6.0;100.0;102790;;;;
2022/01/28 22:35:16;;;;;;;48.7;36.5;;;;;;;5.9;100.0;102780;;;;
2022/01/28 22:41:16;;;;;;;48.7;36.5;;;;;;;6.0;100.0;102780;;;;
2022/01/28 22:43:16;;;;;;;48.7;36.5;;;;;;;5.9;100.0;102770;;;;
2022/01/28 22:49:16;;;;;;;48.7;36.5;;;;;;;5.8;100.0;102770;;;;
2022/01/28 22:51:16;;;;;;;45.4;34.3;;;;;;;6.0;100.0;102770;;;;
2022/01/28 22:55:16;;;;;;;45.4;34.3;;;;;;;5.9;100.0;102760;;;;
2022/01/28 22:57:16;;;;;;;45.4;34.3;;;;;;;5.8;100.0;102770;;;;
2022/01/28 22:59:16;;;;;;;45.4;34.3;;;;;;;5.9;100.0;102770;;;;
2022/01/28 23:01:17;;;;;;;45.4;34.3;;;;;;;5.8;100.0;102760;;;;
2022/01/28 23:05:16;;;;;;;45.4;34.3;;;;;;;5.9;100.0;102760;;;;
2022/01/28 23:07:16;;;;;;;45.4;34.3;;;;;;;5.8;100.0;102750;;;;
2022/01/28 23:09:16;;;;;;;45.4;34.3;;;;;;;5.9;100.0;102750;;;;
2022/01/28 23:15:16;;;;;;;44.4;33.4;;;;;;;6.0;100.0;102740;;;;
2022/01/28 23:19:16;;;;;;;44.4;33.4;;;;;;;6.1;100.0;102740;;;;
2022/01/28 23:23:16;;;;;;;44.4;33.4;;;;;;;6.0;100.0;102720;;;;
2022/01/28 23:29:16;;;;;;;44.4;33.4;;;;;;;6.1;100.0;102720;;;;
2022/01/28 23:33:16;;;;;;;47.9;35.3;;;;;;;6.0;100.0;102710;;;;
2022/01/28 23:35:16;;;;;;;47.9;35.3;;;;;;;5.9;100.0;102710;;;;
2022/01/28 23:37:25;;;;;;;47.9;35.3;;;;;;;6.0;100.0;102710;;;;
2022/01/28 23:39:16;;;;;;;47.9;35.3;;;;;;;6.1;100.0;102700;;;;
2022/01/28 23:41:16;;;;;;;47.9;35.3;;;;;;;6.0;100.0;102700;;;;
2022/01/28 23:43:16;;;;;;;47.9;35.3;;;;;;;6.1;100.0;102700;;;;
2022/01/28 23:45:16;;;;;;;47.9;35.3;;;;;;;6.0;100.0;102690;;;;
2022/01/28 23:49:16;;;;;;;47.9;35.3;;;;;;;6.1;100.0;102690;;;;
2022/01/28 23:53:16;;;;;;;45.4;33.4;;;;;;;6.0;100.0;102690;;;;
